Time;durP1;ratioP1;P1;durP2;ratioP2;P2;SDS_P1;SDS_P2;PMS_P1;PMS_P2;Temp;Humidity;BMP_temperature;BMP_pressure;BME280_temperature;BME280_humidity;BME280_pressure;Samples;Min_cycle;Max_cycle;Signal;HPM_P1;HPM_P2
2023/03/27 00:00:45;;;;;;;9.32;0.93;;;2.40;99.90;;;;;;5093251;28;20483;-77
2023/03/27 00:03:13;;;;;;;6.50;0.80;;;2.50;99.90;;;;;;5093757;28;20459;-77
2023/03/27 00:05:39;;;;;;;11.00;1.05;;;2.50;99.90;;;;;;5111748;28;20395;-77
2023/03/27 00:08:08;;;;;;;8.63;1.40;;;2.50;99.90;;;;;;5111247;28;20040;-82
2023/03/27 00:10:35;;;;;;;4.38;0.95;;;2.50;99.90;;;;;;5092991;28;20035;-76
2023/03/27 00:13:04;;;;;;;8.50;1.08;;;2.50;99.90;;;;;;5111339;28;20032;-81
2023/03/27 00:15:32;;;;;;;13.85;1.23;;;2.50;99.90;;;;;;5093237;28;20717;-76
2023/03/27 00:18:02;;;;;;;7.10;0.93;;;2.50;99.90;;;;;;5111500;28;20049;-76
2023/03/27 00:20:30;;;;;;;9.23;1.63;;;2.50;99.90;;;;;;5111157;28;20054;-77
2023/03/27 00:22:56;;;;;;;7.47;0.90;;;2.50;99.90;;;;;;5111831;28;20111;-81
2023/03/27 00:25:25;;;;;;;8.85;1.10;;;2.50;99.90;;;;;;5111016;28;20126;-77
2023/03/27 00:27:51;;;;;;;8.15;1.25;;;2.50;99.90;;;;;;5111198;28;20478;-78
2023/03/27 00:30:17;;;;;;;3.85;0.95;;;2.50;99.90;;;;;;5111162;28;20082;-77
2023/03/27 00:32:43;;;;;;;5.88;1.00;;;2.50;99.90;;;;;;5111578;28;20110;-79
2023/03/27 00:35:09;;;;;;;6.10;1.27;;;2.50;99.90;;;;;;5110756;28;20118;-76
2023/03/27 00:37:35;;;;;;;11.18;1.65;;;2.50;99.90;;;;;;5111339;28;20042;-75
2023/03/27 00:40:06;;;;;;;10.02;1.27;;;2.50;99.90;;;;;;5110127;28;20055;-76
2023/03/27 00:42:33;;;;;;;5.97;1.00;;;2.50;99.90;;;;;;5091325;28;20131;-76
2023/03/27 00:44:59;;;;;;;12.25;1.38;;;2.50;99.90;;;;;;5110329;28;20039;-76
2023/03/27 00:47:31;;;;;;;12.50;0.95;;;2.50;99.90;;;;;;5109874;28;20048;-77
2023/03/27 00:50:00;;;;;;;5.82;0.90;;;2.40;99.90;;;;;;5109715;28;20056;-79
2023/03/27 00:52:28;;;;;;;9.98;1.38;;;2.40;99.90;;;;;;5109956;28;20090;-77
2023/03/27 00:54:55;;;;;;;7.90;0.90;;;2.40;99.90;;;;;;5109052;28;20036;-80
2023/03/27 00:57:21;;;;;;;9.57;0.80;;;2.40;99.90;;;;;;5109828;28;20043;-77
2023/03/27 00:59:50;;;;;;;8.18;1.08;;;2.30;99.90;;;;;;5110097;28;20040;-75
2023/03/27 01:02:17;;;;;;;6.63;1.02;;;2.30;99.90;;;;;;5109634;28;20053;-75
2023/03/27 01:04:44;;;;;;;2.75;0.80;;;2.30;99.90;;;;;;5098374;28;20513;-78
2023/03/27 01:07:10;;;;;;;11.90;1.40;;;2.30;99.90;;;;;;5109848;28;20044;-75
2023/03/27 01:09:37;;;;;;;5.28;1.10;;;2.30;99.90;;;;;;5107509;28;20104;-75
2023/03/27 01:12:09;;;;;;;10.05;1.00;;;2.30;99.90;;;;;;5109429;28;20048;-76
2023/03/27 01:14:38;;;;;;;8.20;1.23;;;2.30;99.90;;;;;;5107530;28;20431;-75
2023/03/27 01:17:20;;;;;;;7.68;1.10;;;2.40;99.90;;;;;;5102885;28;20130;-79
2023/03/27 01:20:17;;;;;;;8.13;1.27;;;2.40;99.90;;;;;;5109776;28;20047;-77
2023/03/27 01:23:01;;;;;;;12.77;1.17;;;2.30;99.90;;;;;;5109490;28;20122;-76
2023/03/27 01:25:40;;;;;;;6.68;1.10;;;2.30;99.90;;;;;;5109448;28;20497;-81
2023/03/27 01:28:43;;;;;;;6.82;1.10;;;2.40;99.90;;;;;;5109754;28;20027;-77
2023/03/27 01:31:15;;;;;;;9.27;1.33;;;2.30;99.90;;;;;;5109174;28;20502;-85
2023/03/27 01:34:18;;;;;;;9.80;1.17;;;2.30;99.90;;;;;;5109463;28;20079;-78
2023/03/27 01:37:05;;;;;;;10.15;1.13;;;2.30;99.90;;;;;;5107645;28;20094;-80
2023/03/27 01:39:59;;;;;;;7.68;1.17;;;2.30;99.90;;;;;;5066639;28;1082149;-82
2023/03/27 01:42:37;;;;;;;6.93;0.93;;;2.20;99.90;;;;;;5109561;28;20076;-76
2023/03/27 01:45:17;;;;;;;7.07;1.17;;;2.20;99.90;;;;;;5109986;28;20043;-80
2023/03/27 01:48:20;;;;;;;11.45;1.50;;;2.20;99.90;;;;;;5091411;28;20052;-83
2023/03/27 01:50:53;;;;;;;6.43;1.20;;;2.20;99.90;;;;;;5024781;28;20060;-75
2023/03/27 01:53:19;;;;;;;11.95;1.05;;;2.20;99.90;;;;;;5010200;28;20119;-76
2023/03/27 01:55:49;;;;;;;9.48;1.25;;;2.10;99.90;;;;;;5025987;28;20049;-82
2023/03/27 01:58:22;;;;;;;9.88;1.00;;;2.10;99.90;;;;;;5025202;28;20042;-77
2023/03/27 02:00:52;;;;;;;7.05;1.00;;;2.10;99.90;;;;;;5017735;28;20456;-75
2023/03/27 02:03:33;;;;;;;8.38;1.20;;;2.10;99.90;;;;;;5033344;28;20117;-76
2023/03/27 02:06:20;;;;;;;7.38;1.13;;;2.10;99.90;;;;;;5036159;28;20172;-78
2023/03/27 02:08:56;;;;;;;5.10;0.80;;;2.00;99.90;;;;;;5021301;28;20059;-77
2023/03/27 02:11:27;;;;;;;10.77;1.42;;;2.00;99.90;;;;;;5050341;28;20511;-77
2023/03/27 02:14:00;;;;;;;9.85;1.05;;;1.90;99.90;;;;;;5042872;28;20065;-76
2023/03/27 02:16:32;;;;;;;5.45;1.17;;;1.90;99.90;;;;;;5032993;28;20048;-76
2023/03/27 02:19:02;;;;;;;6.28;1.10;;;1.90;99.90;;;;;;5048647;28;20053;-75
2023/03/27 02:21:30;;;;;;;11.82;1.50;;;1.90;99.90;;;;;;5043759;28;20037;-77
2023/03/27 02:23:56;;;;;;;5.30;1.00;;;2.00;99.90;;;;;;5031476;28;20079;-78
2023/03/27 02:26:22;;;;;;;7.43;0.93;;;2.00;99.90;;;;;;5074217;28;20550;-85
2023/03/27 02:29:13;;;;;;;10.75;1.30;;;3.10;99.90;;;;;;5069352;28;20067;-80
2023/03/27 02:31:49;;;;;;;7.88;1.13;;;2.00;99.90;;;;;;5108981;28;20046;-77
2023/03/27 02:34:34;;;;;;;6.22;1.30;;;2.10;99.90;;;;;;5112966;28;20126;-83
2023/03/27 02:37:18;;;;;;;8.80;1.55;;;2.10;99.90;;;;;;5104065;28;20806;-77
2023/03/27 02:39:56;;;;;;;8.88;1.10;;;2.10;99.90;;;;;;5096586;28;20052;-80
2023/03/27 02:42:31;;;;;;;10.77;1.77;;;2.10;99.90;;;;;;5101738;28;20063;-77
2023/03/27 02:45:12;;;;;;;9.90;1.50;;;2.20;99.90;;;;;;5093444;28;20090;-76
2023/03/27 02:47:46;;;;;;;7.80;1.50;;;2.20;99.90;;;;;;5093261;28;20148;-76
2023/03/27 02:50:20;;;;;;;11.02;1.58;;;2.20;99.90;;;;;;5101836;28;20063;-76
2023/03/27 02:52:52;;;;;;;8.40;1.40;;;2.20;99.90;;;;;;5111394;28;20031;-79
2023/03/27 02:55:25;;;;;;;7.95;1.60;;;2.30;99.90;;;;;;5110441;28;20051;-77
2023/03/27 02:57:58;;;;;;;10.32;2.13;;;2.30;99.90;;;;;;5110822;28;20047;-85
2023/03/27 03:00:28;;;;;;;13.95;2.17;;;2.20;99.90;;;;;;5112516;28;20039;-77
2023/03/27 03:03:16;;;;;;;12.23;1.50;;;2.20;99.90;;;;;;5103336;28;20042;-77
2023/03/27 03:05:42;;;;;;;11.15;1.65;;;2.20;99.90;;;;;;5112291;28;20071;-76
2023/03/27 03:08:09;;;;;;;14.65;1.73;;;2.20;99.90;;;;;;5103728;28;20499;-81
2023/03/27 03:10:35;;;;;;;13.27;2.05;;;2.20;99.90;;;;;;5112090;28;20373;-83
2023/03/27 03:13:02;;;;;;;14.10;2.15;;;2.10;99.90;;;;;;5111002;28;20054;-85
2023/03/27 03:15:28;;;;;;;9.52;1.58;;;2.10;99.90;;;;;;5110284;28;20051;-80
2023/03/27 03:17:54;;;;;;;11.90;1.88;;;2.10;99.90;;;;;;5062912;28;20043;-83
2023/03/27 03:20:22;;;;;;;7.03;1.50;;;2.10;99.90;;;;;;5092463;28;20078;-77
2023/03/27 03:22:48;;;;;;;13.13;1.58;;;2.00;99.90;;;;;;5082256;28;20058;-76
2023/03/27 03:25:14;;;;;;;6.20;1.52;;;2.00;99.90;;;;;;5092115;28;20036;-78
2023/03/27 03:27:40;;;;;;;16.95;1.52;;;2.00;99.90;;;;;;5111544;28;20058;-84
2023/03/27 03:30:08;;;;;;;8.80;1.23;;;2.00;99.90;;;;;;5111619;28;20093;-81
2023/03/27 03:32:34;;;;;;;11.02;1.80;;;2.00;99.90;;;;;;5111738;28;20087;-76
2023/03/27 03:35:00;;;;;;;12.70;2.25;;;2.00;99.90;;;;;;5096499;28;20125;-78
2023/03/27 03:37:27;;;;;;;6.45;1.60;;;1.90;99.90;;;;;;5092633;28;20047;-80
2023/03/27 03:39:54;;;;;;;7.90;1.45;;;2.00;99.90;;;;;;5100890;28;20060;-77
2023/03/27 03:42:20;;;;;;;12.85;1.85;;;1.90;99.90;;;;;;5112293;28;20109;-76
2023/03/27 03:44:46;;;;;;;7.72;1.30;;;1.90;99.90;;;;;;5111860;28;20432;-76
2023/03/27 03:47:11;;;;;;;8.43;1.77;;;1.90;99.90;;;;;;5111956;28;20036;-80
2023/03/27 03:49:37;;;;;;;10.38;1.67;;;1.90;99.90;;;;;;5111916;28;20048;-77
2023/03/27 03:52:03;;;;;;;9.07;1.73;;;1.90;99.90;;;;;;5111904;28;20119;-80
2023/03/27 03:54:30;;;;;;;15.45;2.30;;;1.80;99.90;;;;;;5111637;28;20051;-76
2023/03/27 03:56:55;;;;;;;14.45;1.67;;;1.80;99.90;;;;;;5089767;28;20056;-79
2023/03/27 03:59:21;;;;;;;10.40;1.40;;;1.80;99.90;;;;;;5090024;28;20120;-77
2023/03/27 04:01:47;;;;;;;12.65;1.67;;;1.80;99.90;;;;;;5110744;28;20475;-78
2023/03/27 04:04:12;;;;;;;9.73;1.95;;;1.80;99.90;;;;;;5111391;28;20051;-83
2023/03/27 04:06:38;;;;;;;10.35;1.40;;;1.80;99.90;;;;;;5090803;28;20192;-83
2023/03/27 04:09:04;;;;;;;14.65;1.45;;;1.80;99.90;;;;;;5111250;28;20055;-80
2023/03/27 04:11:30;;;;;;;7.85;1.17;;;1.70;99.90;;;;;;5089896;28;20062;-81
2023/03/27 04:13:56;;;;;;;10.52;1.30;;;1.80;99.90;;;;;;5111261;28;20039;-77
2023/03/27 04:16:21;;;;;;;8.90;1.30;;;1.80;99.90;;;;;;5073028;28;20075;-78
2023/03/27 04:18:49;;;;;;;10.50;1.58;;;1.70;99.90;;;;;;5109358;28;20074;-77
2023/03/27 04:21:16;;;;;;;10.38;1.77;;;1.80;99.90;;;;;;5111379;28;20047;-76
2023/03/27 04:23:44;;;;;;;10.85;1.50;;;1.70;99.90;;;;;;5092910;28;20469;-80
2023/03/27 04:26:11;;;;;;;7.82;1.55;;;1.80;99.90;;;;;;5111111;28;20092;-75
2023/03/27 04:28:38;;;;;;;10.85;2.78;;;1.80;99.90;;;;;;5110590;28;20051;-83
2023/03/27 04:31:05;;;;;;;9.60;1.40;;;2.70;99.90;;;;;;5110971;28;20089;-84
2023/03/27 04:33:33;;;;;;;11.65;1.50;;;1.80;99.90;;;;;;5111708;28;20109;-78
2023/03/27 04:35:59;;;;;;;13.98;1.80;;;1.80;99.90;;;;;;5111312;28;20406;-78
2023/03/27 04:38:26;;;;;;;7.90;1.40;;;1.70;99.90;;;;;;5110896;28;20055;-76
2023/03/27 04:40:53;;;;;;;12.27;1.70;;;1.60;99.90;;;;;;5110620;28;20134;-77
2023/03/27 04:43:19;;;;;;;10.45;1.63;;;1.60;99.90;;;;;;5089513;28;20036;-76
2023/03/27 04:45:47;;;;;;;9.45;1.27;;;1.60;99.90;;;;;;5107338;28;20051;-80
2023/03/27 04:48:14;;;;;;;9.27;1.70;;;1.60;99.90;;;;;;5084191;28;20043;-76
2023/03/27 04:50:42;;;;;;;7.60;1.63;;;1.50;99.90;;;;;;5110899;28;20079;-76
2023/03/27 04:53:09;;;;;;;13.13;2.15;;;1.60;99.90;;;;;;5110595;28;20040;-76
2023/03/27 04:55:38;;;;;;;10.20;1.42;;;2.40;99.90;;;;;;5110749;28;20050;-76
2023/03/27 04:58:04;;;;;;;6.97;1.73;;;1.50;99.90;;;;;;5110878;28;20362;-76
2023/03/27 05:00:30;;;;;;;13.20;1.70;;;1.60;99.90;;;;;;5110957;28;20031;-80
2023/03/27 05:02:56;;;;;;;9.73;1.20;;;1.70;99.90;;;;;;5110827;28;20504;-77
2023/03/27 05:05:23;;;;;;;5.55;1.17;;;1.70;99.90;;;;;;5111183;28;20027;-76
2023/03/27 05:07:49;;;;;;;4.53;0.82;;;1.70;99.90;;;;;;5110621;28;20071;-77
2023/03/27 05:10:16;;;;;;;5.90;0.90;;;1.80;99.90;;;;;;5110025;28;20520;-78
2023/03/27 05:12:46;;;;;;;9.18;0.98;;;1.80;99.90;;;;;;5110909;28;20087;-76
2023/03/27 05:15:13;;;;;;;6.97;0.60;;;1.90;99.90;;;;;;5110232;28;20054;-77
2023/03/27 05:17:40;;;;;;;4.95;1.00;;;1.90;99.90;;;;;;5088449;28;20052;-83
2023/03/27 05:20:10;;;;;;;7.03;0.65;;;1.90;99.90;;;;;;5108287;28;20039;-76
2023/03/27 05:22:36;;;;;;;3.55;0.50;;;2.00;99.90;;;;;;5110612;28;20101;-74
2023/03/27 05:25:03;;;;;;;7.75;0.77;;;2.00;99.90;;;;;;5110471;28;20047;-77
2023/03/27 05:27:29;;;;;;;7.35;0.80;;;2.00;99.90;;;;;;5110528;28;20054;-79
2023/03/27 05:29:55;;;;;;;5.93;0.75;;;2.70;99.90;;;;;;5091798;28;20079;-76
2023/03/27 05:32:21;;;;;;;3.30;0.65;;;2.00;99.90;;;;;;5090055;28;20040;-79
2023/03/27 05:34:49;;;;;;;9.63;1.23;;;2.00;99.90;;;;;;5110179;28;20047;-77
2023/03/27 05:37:16;;;;;;;8.60;0.80;;;2.00;99.90;;;;;;5109993;28;20043;-76
2023/03/27 05:39:45;;;;;;;4.22;0.85;;;2.10;99.90;;;;;;5109611;28;20051;-75
2023/03/27 05:42:12;;;;;;;4.22;0.60;;;2.00;99.90;;;;;;5110192;28;20048;-74
2023/03/27 05:44:39;;;;;;;7.18;0.68;;;2.00;99.90;;;;;;5102194;28;20039;-77
2023/03/27 05:47:05;;;;;;;7.75;1.05;;;2.00;99.90;;;;;;5109888;28;20547;-79
2023/03/27 05:49:31;;;;;;;4.97;0.90;;;2.00;99.90;;;;;;5109931;28;20483;-77
2023/03/27 05:51:57;;;;;;;3.78;0.70;;;2.00;99.90;;;;;;5109968;28;20075;-76
2023/03/27 05:54:23;;;;;;;7.40;1.38;;;2.00;99.90;;;;;;5109682;28;20070;-78
2023/03/27 05:56:50;;;;;;;6.43;0.93;;;2.00;99.90;;;;;;5109483;28;20835;-75
2023/03/27 05:59:16;;;;;;;6.35;0.95;;;2.00;99.90;;;;;;5109691;28;20089;-77
2023/03/27 06:01:41;;;;;;;5.47;0.80;;;2.00;99.90;;;;;;5101434;28;20089;-77
2023/03/27 06:04:07;;;;;;;5.72;1.23;;;2.00;99.90;;;;;;5106805;28;20509;-77
2023/03/27 06:06:34;;;;;;;10.82;1.08;;;2.00;99.90;;;;;;5088845;28;20394;-78
2023/03/27 06:09:00;;;;;;;5.35;0.77;;;2.00;99.90;;;;;;5109461;28;20131;-77
2023/03/27 06:11:26;;;;;;;8.38;0.88;;;2.50;99.90;;;;;;5109466;28;20104;-75
2023/03/27 06:13:52;;;;;;;7.15;0.90;;;2.10;99.90;;;;;;5087762;28;20116;-79
2023/03/27 06:16:21;;;;;;;10.30;1.20;;;2.10;99.90;;;;;;5105408;28;20139;-77
2023/03/27 06:18:47;;;;;;;6.75;1.58;;;2.10;99.90;;;;;;5109347;28;20123;-77
2023/03/27 06:21:13;;;;;;;6.65;1.27;;;2.10;99.90;;;;;;5091416;28;20126;-76
2023/03/27 06:23:38;;;;;;;10.25;1.20;;;2.10;99.90;;;;;;5109481;28;20043;-77
2023/03/27 06:26:04;;;;;;;12.00;1.17;;;2.10;99.90;;;;;;5109561;28;20040;-76
2023/03/27 06:28:30;;;;;;;10.93;1.13;;;2.10;99.90;;;;;;5091126;28;20040;-77
2023/03/27 06:30:58;;;;;;;8.52;1.10;;;2.20;99.90;;;;;;5109394;28;20555;-75
2023/03/27 06:33:28;;;;;;;10.25;0.90;;;2.20;99.90;;;;;;5109249;28;20047;-79
2023/03/27 06:35:58;;;;;;;6.57;0.90;;;2.20;99.90;;;;;;5101327;28;20039;-78
2023/03/27 06:38:28;;;;;;;9.40;1.13;;;2.30;99.90;;;;;;5109215;28;20039;-75
2023/03/27 06:40:54;;;;;;;5.88;0.80;;;2.30;99.90;;;;;;5100416;28;20486;-77
2023/03/27 06:43:21;;;;;;;7.90;1.48;;;2.30;99.90;;;;;;5094498;28;20114;-76
2023/03/27 06:45:48;;;;;;;13.75;1.73;;;2.30;99.90;;;;;;5071079;28;20075;-77
2023/03/27 06:48:16;;;;;;;3.25;0.95;;;2.40;99.90;;;;;;5090340;28;20406;-78
2023/03/27 06:50:43;;;;;;;12.60;1.50;;;2.40;99.90;;;;;;5090547;28;20051;-80
2023/03/27 06:53:18;;;;;;;7.55;1.30;;;2.50;99.90;;;;;;5091415;28;20083;-76
2023/03/27 06:55:44;;;;;;;10.07;1.45;;;2.90;99.90;;;;;;5074612;28;20077;-75
2023/03/27 06:58:13;;;;;;;9.38;1.48;;;2.70;99.90;;;;;;5112646;28;20040;-77
2023/03/27 07:00:42;;;;;;;12.48;1.63;;;2.80;99.90;;;;;;5090861;28;20138;-78
2023/03/27 07:03:09;;;;;;;9.48;1.48;;;2.80;99.90;;;;;;5112453;28;20506;-78
2023/03/27 07:08:10;;;;;;;12.68;1.42;;;3.00;99.90;;;;;;5062194;22;20496;-77
2023/03/27 07:10:36;;;;;;;8.98;1.17;;;2.90;99.90;;;;;;5052418;28;20049;-77
2023/03/27 07:13:02;;;;;;;15.02;1.63;;;3.10;99.90;;;;;;5052086;28;20703;-77
2023/03/27 07:15:28;;;;;;;15.13;1.85;;;4.00;99.90;;;;;;5070193;28;20047;-77
2023/03/27 07:18:02;;;;;;;17.08;1.33;;;3.30;99.90;;;;;;5067183;28;20040;-76
2023/03/27 07:20:29;;;;;;;8.52;1.13;;;3.40;99.90;;;;;;5071087;28;20044;-75
2023/03/27 07:22:57;;;;;;;12.20;1.20;;;3.50;99.90;;;;;;5070202;28;20040;-77
2023/03/27 07:25:31;;;;;;;11.52;1.17;;;3.60;99.90;;;;;;5071428;28;20052;-76
2023/03/27 07:28:12;;;;;;;14.18;1.45;;;4.30;99.90;;;;;;5071371;28;20044;-76
2023/03/27 07:30:38;;;;;;;13.10;1.42;;;3.80;99.90;;;;;;5051912;28;20090;-75
2023/03/27 07:33:06;;;;;;;12.57;1.45;;;4.40;99.90;;;;;;5071246;28;20032;-76
2023/03/27 07:35:32;;;;;;;11.57;1.50;;;5.00;99.90;;;;;;5070529;28;20049;-77
2023/03/27 07:37:58;;;;;;;3.90;1.08;;;3.80;99.90;;;;;;5070597;28;20040;-77
2023/03/27 07:40:25;;;;;;;7.22;1.10;;;3.50;99.90;;;;;;5069873;28;20040;-76
2023/03/27 07:42:52;;;;;;;5.28;0.95;;;3.20;99.90;;;;;;5069984;28;20106;-76
2023/03/27 07:45:19;;;;;;;5.95;0.80;;;2.90;99.90;;;;;;5071435;28;20059;-77
2023/03/27 07:47:46;;;;;;;4.68;1.00;;;2.80;99.90;;;;;;5071002;28;20083;-78
2023/03/27 07:50:20;;;;;;;6.90;0.90;;;2.70;99.90;;;;;;5069696;28;20055;-77
2023/03/27 07:52:46;;;;;;;9.32;1.00;;;2.60;99.90;;;;;;5070656;28;20111;-77
2023/03/27 07:55:16;;;;;;;9.77;1.17;;;2.50;99.90;;;;;;5059545;28;20163;-78
2023/03/27 07:57:46;;;;;;;3.83;0.77;;;2.70;99.90;;;;;;5065445;28;20050;-76
2023/03/27 08:00:16;;;;;;;3.70;1.10;;;2.80;99.90;;;;;;5041308;28;20080;-76
2023/03/27 08:02:44;;;;;;;10.30;1.02;;;2.90;99.90;;;;;;5051259;28;20053;-78
2023/03/27 08:05:10;;;;;;;10.27;1.20;;;3.00;99.90;;;;;;5051008;28;20055;-76
2023/03/27 08:07:39;;;;;;;12.15;1.73;;;3.10;99.90;;;;;;5054820;28;20045;-76
2023/03/27 08:10:06;;;;;;;9.77;1.38;;;3.70;99.90;;;;;;5071110;28;20056;-77
2023/03/27 08:12:35;;;;;;;11.32;1.20;;;3.20;99.90;;;;;;5063651;28;20131;-77
2023/03/27 08:15:01;;;;;;;7.18;1.55;;;3.30;99.90;;;;;;5071448;28;20083;-77
2023/03/27 08:17:29;;;;;;;8.77;1.48;;;3.30;99.90;;;;;;5071146;28;20080;-78
2023/03/27 08:19:55;;;;;;;13.32;1.58;;;4.50;99.90;;;;;;5071117;28;20398;-76
2023/03/27 08:22:21;;;;;;;9.50;1.40;;;3.60;99.90;;;;;;5037075;28;20048;-81
2023/03/27 08:24:47;;;;;;;11.82;1.30;;;3.80;99.90;;;;;;5071423;28;20107;-81
2023/03/27 08:27:13;;;;;;;9.25;1.38;;;3.90;99.90;;;;;;5071228;28;20056;-76
2023/03/27 08:29:41;;;;;;;7.47;1.48;;;4.10;99.90;;;;;;5071458;28;20127;-75
2023/03/27 08:32:06;;;;;;;11.52;1.55;;;4.20;99.90;;;;;;5071136;28;20049;-78
2023/03/27 08:34:32;;;;;;;13.70;1.60;;;4.40;99.90;;;;;;5052675;28;20114;-79
2023/03/27 08:36:58;;;;;;;9.13;1.45;;;4.60;99.90;;;;;;5071253;28;20044;-78
2023/03/27 08:39:24;;;;;;;11.25;2.28;;;5.00;99.90;;;;;;5071090;28;20532;-77
2023/03/27 08:41:54;;;;;;;6.30;1.33;;;5.00;99.90;;;;;;5070763;28;20041;-76
2023/03/27 08:44:23;;;;;;;7.03;1.02;;;5.30;99.90;;;;;;5071087;28;20443;-75
2023/03/27 08:47:03;;;;;;;9.00;1.40;;;5.40;99.90;;;;;;5070393;28;20534;-77
2023/03/27 08:49:34;;;;;;;7.13;1.17;;;5.30;99.90;;;;;;5065974;28;20087;-77
2023/03/27 08:52:14;;;;;;;14.07;1.52;;;5.10;99.90;;;;;;5070408;28;20047;-76
2023/03/27 08:54:43;;;;;;;9.65;1.20;;;4.90;99.90;;;;;;5070868;28;20052;-77
2023/03/27 08:57:21;;;;;;;4.72;0.95;;;5.00;99.90;;;;;;5052392;28;20040;-76
2023/03/27 08:59:48;;;;;;;6.88;1.20;;;4.80;99.90;;;;;;5070615;28;20113;-78
2023/03/27 09:02:42;;;;;;;7.70;0.82;;;5.00;99.90;;;;;;5070407;28;20036;-77
2023/03/27 09:05:16;;;;;;;9.18;1.13;;;5.30;99.90;;;;;;5070083;28;20049;-76
2023/03/27 09:08:20;;;;;;;5.03;1.00;;;5.50;99.90;;;;;;5066588;28;20071;-77
2023/03/27 09:10:58;;;;;;;6.55;0.75;;;5.80;99.90;;;;;;5013577;28;20061;-77
2023/03/27 09:13:33;;;;;;;8.18;1.02;;;6.00;99.90;;;;;;5018076;28;20478;-77
2023/03/27 09:16:04;;;;;;;4.43;0.80;;;6.20;99.90;;;;;;5025652;28;20085;-80
2023/03/27 09:18:42;;;;;;;6.28;0.82;;;6.00;99.90;;;;;;5008784;28;20065;-77
2023/03/27 09:21:20;;;;;;;7.70;0.70;;;6.40;99.90;;;;;;5008046;28;20505;-76
2023/03/27 09:23:47;;;;;;;11.48;1.23;;;6.60;99.90;;;;;;5016913;28;20041;-80
2023/03/27 09:26:27;;;;;;;10.85;0.98;;;7.60;99.90;;;;;;5026881;28;20144;-76
2023/03/27 09:29:00;;;;;;;6.90;0.90;;;6.90;99.90;;;;;;5027089;28;20071;-77
2023/03/27 09:31:44;;;;;;;5.28;0.70;;;7.10;99.90;;;;;;5025310;28;20054;-78
2023/03/27 09:34:13;;;;;;;4.97;0.68;;;7.30;99.90;;;;;;5021512;28;20057;-78
2023/03/27 09:36:40;;;;;;;10.95;0.75;;;7.30;99.90;;;;;;5015676;28;20049;-76
2023/03/27 09:39:21;;;;;;;7.43;0.80;;;7.50;99.90;;;;;;5019885;28;20542;-77
2023/03/27 09:42:15;;;;;;;3.35;0.47;;;7.60;99.90;;;;;;5007835;28;20138;-75
2023/03/27 09:44:43;;;;;;;5.43;1.17;;;8.30;99.90;;;;;;5024113;28;20062;-75
2023/03/27 09:47:57;;;;;;;7.25;1.08;;;7.80;99.90;;;;;;5041781;28;20063;-75
2023/03/27 09:50:46;;;;;;;7.03;0.85;;;7.60;99.90;;;;;;5002469;28;20584;-75
2023/03/27 09:53:17;;;;;;;7.38;0.98;;;7.70;99.90;;;;;;5008231;28;20500;-75
2023/03/27 09:55:49;;;;;;;9.95;1.30;;;7.80;99.90;;;;;;5007941;28;20057;-75
2023/03/27 09:58:24;;;;;;;7.22;0.93;;;7.20;99.90;;;;;;5008029;28;20185;-76
2023/03/27 10:01:12;;;;;;;5.05;0.98;;;7.40;99.90;;;;;;4984691;28;20081;-75
2023/03/27 10:03:47;;;;;;;6.75;1.00;;;7.50;99.90;;;;;;4999114;28;20041;-75
2023/03/27 10:06:24;;;;;;;8.15;0.80;;;7.70;99.90;;;;;;5006278;28;20545;-75
2023/03/27 10:08:51;;;;;;;7.63;0.70;;;7.30;99.90;;;;;;5000015;28;20062;-76
2023/03/27 10:11:20;;;;;;;9.82;0.90;;;8.40;99.90;;;;;;5007067;28;20062;-77
2023/03/27 10:13:48;;;;;;;12.07;1.27;;;7.70;99.90;;;;;;5007277;28;20065;-77
2023/03/27 10:16:17;;;;;;;9.43;0.95;;;7.60;99.90;;;;;;4999969;28;20042;-77
2023/03/27 10:18:53;;;;;;;8.80;0.77;;;7.30;99.90;;;;;;5007346;28;20093;-76
2023/03/27 10:21:31;;;;;;;5.32;0.70;;;7.80;99.90;;;;;;4989536;28;20489;-75
2023/03/27 10:24:03;;;;;;;4.80;0.88;;;8.00;99.90;;;;;;4985635;28;20073;-77
2023/03/27 10:26:32;;;;;;;6.75;0.82;;;8.30;99.90;;;;;;5025411;28;20579;-76
2023/03/27 10:29:20;;;;;;;5.47;0.52;;;8.50;99.90;;;;;;5072242;28;20504;-75
2023/03/27 10:31:55;;;;;;;7.00;0.77;;;8.60;99.90;;;;;;5061262;28;20041;-77
2023/03/27 10:34:51;;;;;;;3.13;0.70;;;8.70;99.90;;;;;;5067415;28;20050;-77
2023/03/27 10:37:25;;;;;;;9.60;1.10;;;8.50;99.90;;;;;;5053741;28;20045;-73
2023/03/27 10:39:51;;;;;;;9.17;0.90;;;8.70;99.90;;;;;;5072958;28;20076;-75
2023/03/27 10:42:18;;;;;;;5.55;0.93;;;8.30;99.90;;;;;;5072628;28;20044;-74
2023/03/27 10:44:47;;;;;;;5.35;1.15;;;8.10;99.90;;;;;;5071558;28;20121;-75
2023/03/27 10:47:22;;;;;;;8.38;0.90;;;8.30;99.90;;;;;;5037140;28;20062;-75
2023/03/27 10:49:56;;;;;;;;;;;8.90;99.90;;;;;;5055618;28;20045;-75
2023/03/27 10:52:32;;;;;;;5.85;0.82;;;8.70;99.90;;;;;;5057501;28;19928;-76
2023/03/27 10:55:11;;;;;;;9.35;0.88;;;8.80;99.90;;;;;;5072855;28;20143;-76
2023/03/27 10:57:38;;;;;;;7.15;0.95;;;9.00;99.90;;;;;;5054354;28;20101;-75
2023/03/27 11:00:12;;;;;;;8.63;0.90;;;9.30;99.90;;;;;;5072640;28;20052;-75
2023/03/27 11:02:58;;;;;;;6.28;0.95;;;9.30;99.90;;;;;;5034772;28;20096;-75
2023/03/27 11:05:33;;;;;;;3.90;0.70;;;9.40;99.90;;;;;;5072346;28;20055;-75
2023/03/27 11:08:16;;;;;;;7.45;1.02;;;9.50;99.90;;;;;;5054575;28;20403;-74
2023/03/27 11:10:44;;;;;;;8.00;0.93;;;9.00;99.90;;;;;;5072558;28;20049;-75
2023/03/27 11:13:25;;;;;;;7.90;0.80;;;9.70;99.90;;;;;;5072377;28;20064;-76
2023/03/27 11:16:25;;;;;;;6.50;1.10;;;9.80;99.90;;;;;;5072508;28;20043;-76
2023/03/27 11:19:02;;;;;;;6.00;0.85;;;9.70;99.90;;;;;;5064713;28;20106;-77
2023/03/27 11:21:48;;;;;;;7.05;1.00;;;9.10;99.90;;;;;;5042895;28;20041;-76
2023/03/27 11:24:52;;;;;;;6.82;0.82;;;8.10;99.90;;;;;;5062710;28;20059;-76
2023/03/27 11:27:48;;;;;;;6.15;1.00;;;7.80;99.90;;;;;;5044523;28;20053;-77
2023/03/27 11:30:35;;;;;;;8.98;1.00;;;7.60;99.90;;;;;;5053070;28;20102;-75
2023/03/27 11:33:08;;;;;;;8.35;0.85;;;7.50;99.90;;;;;;5063844;28;20040;-75
2023/03/27 11:35:42;;;;;;;4.53;0.85;;;7.20;99.90;;;;;;5065591;28;20036;-76
2023/03/27 11:38:21;;;;;;;5.57;0.73;;;7.20;99.90;;;;;;5071274;28;20102;-75
2023/03/27 11:40:48;;;;;;;4.97;0.70;;;7.60;99.90;;;;;;5050477;28;20040;-75
2023/03/27 11:43:16;;;;;;;3.20;0.60;;;7.70;99.90;;;;;;5060213;28;20075;-76
2023/03/27 11:46:03;;;;;;;8.60;1.10;;;8.00;99.90;;;;;;5072329;28;20076;-78
2023/03/27 11:48:41;;;;;;;8.65;1.00;;;8.00;99.90;;;;;;5072140;28;20068;-75
2023/03/27 11:51:31;;;;;;;6.93;0.80;;;8.30;99.90;;;;;;5071851;28;20048;-77
2023/03/27 11:54:19;;;;;;;9.25;1.33;;;8.40;99.90;;;;;;5028800;28;20921;-77
2023/03/27 11:56:53;;;;;;;8.07;1.00;;;8.30;99.90;;;;;;5063006;28;20094;-75
2023/03/27 11:59:36;;;;;;;9.80;1.60;;;8.70;99.90;;;;;;5052008;28;20076;-76
2023/03/27 12:02:05;;;;;;;4.90;0.98;;;8.60;99.90;;;;;;5063271;28;20298;-76
2023/03/27 12:04:56;;;;;;;6.80;0.80;;;8.90;99.90;;;;;;5042570;28;20056;-77
2023/03/27 12:07:39;;;;;;;6.35;0.88;;;8.40;99.90;;;;;;5059391;28;20056;-76
2023/03/27 12:10:22;;;;;;;7.18;0.80;;;8.80;99.90;;;;;;5061855;28;20080;-76
2023/03/27 12:13:10;;;;;;;7.45;0.93;;;8.60;99.90;;;;;;5041420;28;20055;-77
2023/03/27 12:15:50;;;;;;;6.55;0.75;;;8.50;99.90;;;;;;5069181;28;20403;-76
2023/03/27 12:18:37;;;;;;;5.90;1.02;;;8.60;99.90;;;;;;5060868;28;20050;-75
2023/03/27 12:21:23;;;;;;;5.22;1.05;;;8.30;99.90;;;;;;5071288;28;20054;-76
2023/03/27 12:24:07;;;;;;;9.73;1.10;;;9.00;99.90;;;;;;5051093;28;20416;-75
2023/03/27 12:26:51;;;;;;;12.35;1.13;;;8.70;99.90;;;;;;5058955;28;20392;-73
2023/03/27 12:29:32;;;;;;;12.23;1.42;;;9.00;99.90;;;;;;5059149;28;20459;-76
2023/03/27 12:32:22;;;;;;;8.98;1.50;;;9.30;99.90;;;;;;5061527;28;20099;-78
2023/03/27 12:34:55;;;;;;;9.60;1.23;;;9.30;99.90;;;;;;5063274;28;20060;-76
2023/03/27 12:37:35;;;;;;;7.43;1.42;;;9.50;99.90;;;;;;5071641;28;20088;-75
2023/03/27 12:40:23;;;;;;;6.75;0.80;;;8.30;99.90;;;;;;5051098;28;20132;-76
2023/03/27 12:42:49;;;;;;;3.42;0.60;;;8.20;99.90;;;;;;5036239;28;20082;-75
2023/03/27 12:45:23;;;;;;;0.75;0.30;;;8.00;99.90;;;;;;5040480;28;20048;-75
2023/03/27 12:48:09;;;;;;;4.65;0.77;;;8.70;99.90;;;;;;5066832;28;20131;-75
2023/03/27 12:50:56;;;;;;;3.95;0.40;;;8.20;99.90;;;;;;5058453;28;20164;-75
2023/03/27 12:53:27;;;;;;;4.50;0.77;;;8.70;99.90;;;;;;5058564;28;20045;-74
2023/03/27 12:56:16;;;;;;;5.20;0.80;;;8.50;99.90;;;;;;5068969;28;20072;-73
2023/03/27 12:58:48;;;;;;;9.63;0.93;;;8.60;99.90;;;;;;4972831;28;20069;-78
2023/03/27 13:01:50;;;;;;;7.10;1.20;;;9.10;99.90;;;;;;4962154;28;20058;-74
2023/03/27 13:04:36;;;;;;;7.90;1.00;;;8.60;99.90;;;;;;4956344;28;20055;-77
2023/03/27 13:07:07;;;;;;;5.35;1.08;;;8.40;99.90;;;;;;4980593;28;20065;-74
2023/03/27 13:09:54;;;;;;;4.45;0.70;;;8.60;99.90;;;;;;4976949;28;20055;-74
2023/03/27 13:12:41;;;;;;;8.73;1.73;;;8.60;99.90;;;;;;4977568;28;20074;-75
2023/03/27 13:15:29;;;;;;;7.00;1.55;;;8.60;99.90;;;;;;4978157;28;20138;-75
2023/03/27 13:18:29;;;;;;;5.93;1.02;;;8.70;99.90;;;;;;4979579;28;20529;-76
2023/03/27 13:21:15;;;;;;;10.52;1.40;;;8.70;99.90;;;;;;4981435;28;20101;-75
2023/03/27 13:23:59;;;;;;;8.70;1.45;;;8.70;99.90;;;;;;4983459;28;20506;-75
2023/03/27 13:26:39;;;;;;;6.18;1.27;;;8.40;99.90;;;;;;4977583;28;20069;-76